Samish Island, Washington
Current Conditions -  °F | °C
As of 10:55 PM on Thursday 18 Dec 2014 (Local Time) from KBVS Reporting Station
Overcast Overcast  
Wind Chill: 52°   Ceiling: 3300
Heat Index: 52°   Visibility: 10mi
Dew Point: 46°   Wind: 9mph
Humidity: 82%   Direction: 170°S
Pressure: 29.72"   Gusts: 17mph
Location:  48.5689°N, 122.407°W
Report Text: KBVS 190655Z AUTO 17008G15KT 10SM OVC033 11/08 A2972 RMK A01 P000
Loading
Personal Weather Stations






























Interactive Weather Map New forecast layout! Learn more

10-Day Weather Forecast

Advertisements
Track Severe Weather on mobile